Terminal Aerodrome Forecast
Issued by NWS

Home | Current Version | Previous Version | Text Only | Print | Product List | Glossary Off
Versions: 1 2 3 4 5 6 7 8 9 10 11 12 13 14 15

158
FTUS43 KOAX 051141
TAFCDR
TAF
KCDR 051141Z 0512/0612 23012KT P6SM BKN100 BKN200
     FM051500 31014KT P6SM OVC050
     FM051700 32022G30KT P6SM VCSH BKN050 OVC080
     FM060000 30015KT P6SM BKN100=

USA.gov is the U.S. government's official web portal to all federal, state and local government web resources and services.